Time;durP1;ratioP1;P1;durP2;ratioP2;P2;SDS_P1;SDS_P2;PMS_P1;PMS_P2;Temp;Humidity;BMP_temperature;BMP_pressure;BME280_temperature;BME280_humidity;BME280_pressure;Samples;Min_cycle;Max_cycle;Signal;HPM_P1;HPM_P2
2021/08/13 00:00:33;;;;;;;7.08;3.53;;;;;;;22.20;45.57;99769.42;378397;106;1961990;-72
2021/08/13 00:01:40;;;;;;;7.82;3.63;;;;;;;22.22;45.52;99769.97;375408;107;1962029;-71
2021/08/13 00:02:46;;;;;;;10.43;4.23;;;;;;;22.17;45.66;99774.38;340660;106;2578011;-71
2021/08/13 00:03:58;;;;;;;7.74;3.84;;;;;;;22.28;45.66;99772.44;391397;104;2072015;-70
2021/08/13 00:05:03;;;;;;;9.22;3.38;;;;;;;22.10;45.81;99776.59;372376;107;1965068;-71
2021/08/13 00:06:09;;;;;;;8.38;3.81;;;;;;;22.14;45.78;99785.09;373188;106;1961982;-70
2021/08/13 00:07:21;;;;;;;7.92;3.80;;;;;;;22.20;45.85;99777.67;349351;104;2756349;-70
2021/08/13 00:08:27;;;;;;;5.98;3.31;;;;;;;22.08;45.90;99777.97;326341;107;2045947;-71
2021/08/13 00:09:40;;;;;;;8.23;3.57;;;;;;;22.21;45.96;99782.09;393138;104;1986033;-71
2021/08/13 00:10:46;;;;;;;7.25;3.53;;;;;;;22.00;46.14;99782.11;375515;107;1961965;-71
2021/08/13 00:12:09;;;;;;;7.08;3.48;;;;;;;21.98;46.23;99776.06;374346;107;1962111;-72
2021/08/13 00:13:16;;;;;;;6.56;3.28;;;;;;;22.01;46.05;99783.75;375762;107;1962059;-71
2021/08/13 00:14:28;;;;;;;7.42;3.62;;;;;;;22.10;46.13;99781.27;372542;104;2080982;-70
2021/08/13 00:15:33;;;;;;;8.78;3.63;;;;;;;21.81;46.42;99781.88;357326;105;1961979;-71
2021/08/13 00:16:39;;;;;;;7.35;3.32;;;;;;;21.82;46.54;99774.45;378462;106;1964058;-71
2021/08/13 00:17:44;;;;;;;9.21;3.63;;;;;;;21.85;46.47;99768.39;377669;107;1961944;-71
2021/08/13 00:18:50;;;;;;;8.50;3.43;;;;;;;21.84;46.43;99780.50;373250;107;1963951;-71
2021/08/13 00:20:05;;;;;;;6.24;3.30;;;;;;;21.89;46.65;99770.31;370971;109;1987007;-72
2021/08/13 00:21:11;;;;;;;5.99;3.23;;;;;;;21.90;46.32;99776.62;356347;111;1962086;-72
2021/08/13 00:22:16;;;;;;;8.26;3.75;;;;;;;21.86;46.37;99781.05;356725;111;1962004;-72
2021/08/13 00:23:21;;;;;;;5.72;3.23;;;;;;;21.77;46.70;99778.02;358721;111;1962044;-69
2021/08/13 00:24:33;;;;;;;7.67;3.63;;;;;;;21.99;46.39;99776.88;395972;104;1986051;-73
2021/08/13 00:25:38;;;;;;;7.64;2.98;;;;;;;21.88;46.26;99782.39;377988;107;1962075;-71
2021/08/13 00:26:44;;;;;;;6.96;3.78;;;;;;;21.81;46.58;99784.62;306298;107;2280061;-72
2021/08/13 00:27:50;;;;;;;6.80;3.88;;;;;;;21.80;46.52;99782.96;341017;109;1964997;-70
2021/08/13 00:29:02;;;;;;;7.06;3.29;;;;;;;21.89;46.71;99780.49;394416;105;1986948;-70
2021/08/13 00:30:09;;;;;;;7.43;3.11;;;;;;;21.78;46.59;99773.34;376357;107;1961990;-70
2021/08/13 00:31:15;;;;;;;6.91;3.62;;;;;;;21.73;46.69;99771.44;346293;109;1962023;-72
2021/08/13 00:32:27;;;;;;;6.24;3.39;;;;;;;21.82;46.88;99775.27;397335;104;1985984;-71
2021/08/13 00:33:32;;;;;;;7.25;3.47;;;;;;;21.66;47.02;99779.14;373828;107;1962994;-69
2021/08/13 00:34:45;;;;;;;5.86;3.07;;;;;;;21.82;46.76;99782.70;358707;103;2881997;-72
2021/08/13 00:35:52;;;;;;;6.54;3.48;;;;;;;21.72;46.76;99775.28;379843;105;1961965;-71
2021/08/13 00:37:06;;;;;;;8.52;3.72;;;;;;;21.83;46.69;99782.44;342389;106;2731992;-71
2021/08/13 00:38:11;;;;;;;7.34;3.19;;;;;;;21.64;46.94;99782.16;316409;109;2060965;-71
2021/08/13 00:39:35;;;;;;;9.41;3.63;;;;;;;21.60;47.08;99781.08;356530;112;1962030;-71
2021/08/13 00:40:41;;;;;;;7.58;3.81;;;;;;;21.67;46.95;99783.53;316752;110;2039039;-71
2021/08/13 00:41:47;;;;;;;7.12;3.31;;;;;;;21.61;47.15;99787.39;352404;110;1962019;-71
2021/08/13 00:42:59;;;;;;;8.91;3.89;;;;;;;21.74;47.02;99786.83;387599;106;1987097;-71
2021/08/13 00:44:04;;;;;;;9.36;3.79;;;;;;;21.64;46.98;99782.16;358989;111;1961023;-71
2021/08/13 00:45:17;;;;;;;7.18;3.62;;;;;;;21.70;47.20;99783.82;358403;106;2418039;-72
2021/08/13 00:46:33;;;;;;;7.68;3.52;;;;;;;21.58;47.12;99783.27;371590;109;1960637;-72
2021/08/13 00:47:58;;;;;;;7.31;3.69;;;;;;;21.51;47.37;99793.70;367141;109;1960957;-72
2021/08/13 00:49:11;;;;;;;7.03;3.89;;;;;;;21.61;47.44;99781.89;396645;104;1984797;-71
2021/08/13 00:50:23;;;;;;;7.32;3.34;;;;;;;21.51;47.36;99786.31;332287;109;2511905;-71
2021/08/13 00:51:35;;;;;;;7.91;3.85;;;;;;;21.61;47.52;99790.95;394741;103;1984806;-71
2021/08/13 00:52:43;;;;;;;5.98;3.09;;;;;;;21.48;47.59;99791.52;324517;107;2078730;-71
2021/08/13 00:54:08;;;;;;;6.64;3.33;;;;;;;21.49;47.37;99791.25;324652;112;2625766;-71
2021/08/13 00:55:20;;;;;;;8.27;3.57;;;;;;;21.64;47.26;99789.58;394130;101;1960797;-71
2021/08/13 00:56:34;;;;;;;8.03;3.68;;;;;;;21.46;47.65;99791.80;373989;105;1967772;-71
2021/08/13 00:57:59;;;;;;;7.94;3.76;;;;;;;21.33;47.82;99785.98;312658;107;2182957;-71
2021/08/13 00:59:11;;;;;;;9.89;3.73;;;;;;;21.45;47.92;99789.31;393512;104;1962877;-72
2021/08/13 01:00:25;;;;;;;11.27;4.33;;;;;;;21.35;47.71;99784.61;367859;107;1962054;-72
2021/08/13 01:01:38;;;;;;;8.79;4.43;;;;;;;21.49;47.66;99784.94;391692;104;1961940;-72
2021/08/13 01:02:44;;;;;;;7.83;3.72;;;;;;;21.33;47.73;99789.57;327289;106;2816027;-72
2021/08/13 01:04:08;;;;;;;7.78;3.74;;;;;;;21.34;47.69;99795.89;369188;108;1962019;-72
2021/08/13 01:05:15;;;;;;;6.91;3.73;;;;;;;21.22;48.28;99802.48;361414;108;2884992;-72
2021/08/13 01:06:29;;;;;;;6.93;3.14;;;;;;;21.45;47.88;99795.64;360262;109;2339925;-71
2021/08/13 01:07:35;;;;;;;8.16;4.37;;;;;;;21.29;47.95;99793.95;351013;113;1962046;-71
2021/08/13 01:08:47;;;;;;;7.35;3.69;;;;;;;21.41;47.83;99788.23;402626;101;2072017;-71
2021/08/13 01:09:55;;;;;;;7.51;3.81;;;;;;;21.30;47.82;99801.09;330910;105;2853923;-72
2021/08/13 01:11:53;;;;;;;8.87;3.74;;;;;;;21.26;48.07;99797.25;357305;105;1961903;-72
2021/08/13 01:13:09;;;;;;;7.11;3.60;;;;;;;21.40;47.98;99794.81;392010;104;1991138;-72
2021/08/13 01:14:22;;;;;;;8.77;3.91;;;;;;;21.27;48.10;99801.64;371625;109;1961992;-71
2021/08/13 01:15:39;;;;;;;7.52;3.70;;;;;;;21.26;48.40;99802.75;326141;108;2859078;-70
2021/08/13 01:16:49;;;;;;;8.89;4.00;;;;;;;21.14;48.32;99802.98;327428;112;1961987;-71
2021/08/13 01:18:16;;;;;;;8.91;3.89;;;;;;;20.95;48.98;99796.38;361032;111;1963037;-70
2021/08/13 01:19:42;;;;;;;7.28;3.72;;;;;;;21.17;48.58;99799.72;401508;101;1985982;-71
2021/08/13 01:21:18;;;;;;;23.96;5.58;;;;;;;21.19;48.47;99799.44;387220;106;1986078;-71
2021/08/13 01:22:48;;;;;;;27.51;6.02;;;;;;;21.11;48.47;99805.47;366555;109;1962008;-70
2021/08/13 01:24:11;;;;;;;21.05;6.07;;;;;;;21.27;48.33;99807.95;365583;104;2487952;-72
2021/08/13 01:25:40;;;;;;;27.22;5.82;;;;;;;21.11;48.54;99802.72;332286;107;2675929;-70
2021/08/13 01:27:03;;;;;;;15.57;4.94;;;;;;;21.08;48.77;99798.59;373694;106;1964074;-71
2021/08/13 01:28:38;;;;;;;14.44;5.10;;;;;;;21.24;48.34;99811.25;385823;106;1985921;-70
2021/08/13 01:30:07;;;;;;;16.35;4.71;;;;;;;21.11;48.58;99809.03;361098;111;1962017;-70
2021/08/13 01:31:24;;;;;;;11.58;4.46;;;;;;;21.18;48.58;99806.03;397022;103;1985940;-71
2021/08/13 01:32:44;;;;;;;10.48;3.99;;;;;;;21.12;48.51;99807.11;329167;105;2833012;-70
2021/08/13 01:34:00;;;;;;;11.25;4.49;;;;;;;21.19;48.49;99813.17;362043;104;2559472;-71
2021/08/13 01:35:12;;;;;;;10.79;4.33;;;;;;;21.10;48.35;99806.58;379057;105;1962059;-72
2021/08/13 01:36:39;;;;;;;8.21;3.70;;;;;;;21.06;48.51;99804.38;311845;108;2192012;-69
2021/08/13 01:37:50;;;;;;;14.58;4.73;;;;;;;21.01;48.54;99807.11;378048;105;1961986;-72
2021/08/13 01:39:04;;;;;;;9.66;4.15;;;;;;;21.13;48.66;99808.77;364726;104;2438312;-69
2021/08/13 01:40:15;;;;;;;11.16;4.34;;;;;;;21.03;48.49;99806.83;378581;107;1961987;-69
2021/08/13 01:41:35;;;;;;;9.18;4.03;;;;;;;21.07;49.03;99807.95;388609;106;1987021;-71
2021/08/13 01:42:44;;;;;;;8.38;4.06;;;;;;;21.00;48.66;99816.43;366027;109;1961968;-69
2021/08/13 01:44:11;;;;;;;8.56;3.66;;;;;;;20.98;48.81;99815.05;322225;109;2687952;-71
2021/08/13 01:45:30;;;;;;;9.47;4.18;;;;;;;20.98;48.70;99813.13;362692;109;1962978;-72
2021/08/13 01:46:43;;;;;;;10.00;3.87;;;;;;;21.07;48.90;99807.95;376298;110;1986024;-71
2021/08/13 01:47:53;;;;;;;9.53;4.34;;;;;;;20.96;48.84;99817.27;351965;113;1962021;-71
2021/08/13 01:49:06;;;;;;;8.32;4.14;;;;;;;21.03;48.99;99823.30;397707;104;1987061;-72
2021/08/13 01:50:14;;;;;;;7.97;3.54;;;;;;;20.89;48.93;99817.51;327366;107;2030058;-72
2021/08/13 01:51:38;;;;;;;7.60;3.74;;;;;;;20.86;49.34;99818.87;380420;106;1961902;-71
2021/08/13 01:52:45;;;;;;;6.19;3.69;;;;;;;20.89;48.94;99823.00;324933;107;2081083;-71
2021/08/13 01:54:03;;;;;;;7.94;4.04;;;;;;;21.01;49.17;99820.00;393159;104;2023932;-71
2021/08/13 01:55:12;;;;;;;8.43;3.99;;;;;;;20.90;48.98;99824.64;371586;109;1961932;-69
2021/08/13 01:56:20;;;;;;;8.93;3.87;;;;;;;20.90;49.14;99824.64;354126;107;1962010;-71
2021/08/13 01:57:32;;;;;;;8.29;4.34;;;;;;;20.96;49.40;99823.58;390730;105;2080829;-72
2021/08/13 01:58:40;;;;;;;7.82;4.06;;;;;;;20.78;49.46;99827.63;376696;107;1962075;-71
2021/08/13 01:59:52;;;;;;;10.98;3.91;;;;;;;20.93;49.41;99831.51;386854;106;1985973;-69
2021/08/13 02:00:58;;;;;;;8.62;3.68;;;;;;;20.79;49.36;99829.27;369736;109;1961913;-73
2021/08/13 02:02:22;;;;;;;7.99;3.84;;;;;;;20.75;49.46;99830.92;359381;112;1964055;-72
2021/08/13 02:03:29;;;;;;;9.02;4.45;;;;;;;20.71;49.71;99838.03;365103;109;1963011;-70
2021/08/13 02:04:45;;;;;;;7.76;4.12;;;;;;;20.82;49.65;99842.45;395224;104;2071936;-71
2021/08/13 02:05:53;;;;;;;7.82;4.18;;;;;;;20.77;49.68;99839.72;375694;107;1963967;-72
2021/08/13 02:07:11;;;;;;;6.95;3.06;;;;;;;20.84;49.63;99844.95;386806;106;1987933;-72
2021/08/13 02:08:26;;;;;;;7.77;4.07;;;;;;;20.84;49.77;99842.20;390112;104;1985932;-70
2021/08/13 02:09:51;;;;;;;9.36;3.70;;;;;;;20.78;49.64;99843.29;371682;109;1964860;-71
2021/08/13 02:11:06;;;;;;;8.51;3.93;;;;;;;20.85;49.65;99847.44;398040;104;1985973;-71
2021/08/13 02:12:11;;;;;;;7.85;4.01;;;;;;;20.64;49.91;99843.78;369420;107;1962071;-70
2021/08/13 02:13:37;;;;;;;9.54;4.24;;;;;;;20.64;49.80;99843.78;343280;107;2534026;-72
2021/08/13 02:14:50;;;;;;;10.01;4.04;;;;;;;20.73;50.19;99849.58;401520;104;1985968;-72
2021/08/13 02:15:59;;;;;;;7.02;4.24;;;;;;;20.64;50.02;99845.71;346577;105;2514047;-71
2021/08/13 02:17:18;;;;;;;7.73;4.03;;;;;;;20.75;50.12;99849.32;390345;104;1985960;-71
2021/08/13 02:18:25;;;;;;;7.95;3.90;;;;;;;20.67;50.05;99855.30;375885;107;1962025;-68
2021/08/13 02:20:01;;;;;;;7.68;4.00;;;;;;;20.59;49.99;99853.92;371252;107;1969987;-70
2021/08/13 02:21:15;;;;;;;9.09;4.44;;;;;;;20.72;50.21;99855.33;394539;104;1985940;-72
2021/08/13 02:22:20;;;;;;;10.51;5.02;;;;;;;20.59;50.02;99857.48;375725;107;1961921;-72
2021/08/13 02:23:27;;;;;;;7.77;4.06;;;;;;;20.59;49.95;99862.16;371319;107;1964969;-72
2021/08/13 02:24:39;;;;;;;8.44;4.42;;;;;;;20.62;50.63;99861.61;397558;103;1986962;-70
2021/08/13 02:25:50;;;;;;;8.94;4.19;;;;;;;20.43;50.66;99869.45;378906;106;1961967;-72
2021/08/13 02:27:03;;;;;;;9.03;4.23;;;;;;;20.54;50.74;99868.44;396172;104;1974324;-69
2021/08/13 02:28:08;;;;;;;8.94;4.34;;;;;;;20.42;50.53;99871.34;374207;105;1962018;-70
2021/08/13 02:29:32;;;;;;;7.21;3.73;;;;;;;20.43;50.70;99862.04;344675;107;1964985;-73
2021/08/13 02:30:45;;;;;;;8.79;4.44;;;;;;;20.55;50.58;99867.33;379458;106;2073030;-72
2021/08/13 02:31:51;;;;;;;7.83;4.23;;;;;;;20.43;50.67;99870.27;364314;109;1962037;-72
2021/08/13 02:33:03;;;;;;;11.65;4.61;;;;;;;20.52;50.86;99869.77;392875;104;1986983;-71
2021/08/13 02:34:09;;;;;;;8.53;4.38;;;;;;;20.39;50.97;99866.39;373746;107;1963007;-72
2021/08/13 02:35:34;;;;;;;9.34;4.26;;;;;;;20.32;51.31;99864.97;319785;110;2043039;-72
2021/08/13 02:36:53;;;;;;;10.25;4.68;;;;;;;20.52;51.00;99870.58;398809;104;1986046;-71
2021/08/13 02:38:21;;;;;;;8.38;4.13;;;;;;;20.57;50.99;99869.82;394984;104;1985988;-72
2021/08/13 02:39:34;;;;;;;9.73;5.21;;;;;;;20.43;50.92;99863.96;320662;109;2830905;-71
2021/08/13 02:40:56;;;;;;;8.96;3.94;;;;;;;20.54;51.02;99870.36;375827;108;1986959;-72
2021/08/13 02:42:12;;;;;;;7.62;3.82;;;;;;;20.51;51.00;99871.69;381408;106;1987050;-70
2021/08/13 02:43:22;;;;;;;8.58;4.44;;;;;;;20.38;50.95;99867.50;299120;107;2273099;-71
2021/08/13 02:44:36;;;;;;;9.57;4.70;;;;;;;20.55;50.96;99864.59;392225;104;1986042;-71
2021/08/13 02:45:46;;;;;;;9.86;4.34;;;;;;;20.40;50.97;99865.32;376833;107;1962108;-71
2021/08/13 02:47:12;;;;;;;9.77;4.78;;;;;;;20.39;50.94;99871.87;375528;107;1961965;-70
2021/08/13 02:48:18;;;;;;;9.97;4.35;;;;;;;20.43;50.85;99875.76;376402;107;1962233;-72
2021/08/13 02:49:30;;;;;;;9.22;4.78;;;;;;;20.55;51.01;99872.82;393151;104;2072048;-71
2021/08/13 02:50:40;;;;;;;8.58;4.69;;;;;;;20.47;50.77;99865.06;375366;106;1961977;-71
2021/08/13 02:51:48;;;;;;;10.36;4.37;;;;;;;20.43;51.08;99874.94;371672;109;1961931;-71
2021/08/13 02:53:13;;;;;;;7.87;3.94;;;;;;;20.16;51.06;99826.50;340469;107;2555086;-72
2021/08/13 02:54:27;;;;;;;8.49;4.36;;;;;;;20.39;51.66;99874.62;414051;101;1984692;-71
2021/08/13 02:55:39;;;;;;;8.22;4.44;;;;;;;20.35;51.36;99865.29;387860;103;1961950;-72
2021/08/13 02:56:49;;;;;;;8.61;4.33;;;;;;;20.30;51.79;99867.18;387975;103;1960787;-71
2021/08/13 02:58:02;;;;;;;9.52;4.33;;;;;;;20.39;51.77;99871.87;400500;103;1985806;-72
2021/08/13 02:59:10;;;;;;;8.59;4.26;;;;;;;20.25;51.97;99873.45;380528;105;1960764;-71
2021/08/13 03:00:17;;;;;;;7.84;4.12;;;;;;;20.28;51.70;99856.46;378294;106;1960827;-71
2021/08/13 03:01:26;;;;;;;8.19;4.46;;;;;;;20.23;51.97;99867.40;382687;103;1960838;-70
2021/08/13 03:02:39;;;;;;;8.77;4.51;;;;;;;20.38;51.74;99872.16;398271;103;1984779;-71
2021/08/13 03:03:48;;;;;;;10.59;4.90;;;;;;;20.26;51.77;99866.05;375235;105;1960855;-72
2021/08/13 03:04:55;;;;;;;9.28;4.63;;;;;;;20.33;51.83;99872.13;378811;104;1960863;-71
2021/08/13 03:06:10;;;;;;;7.88;4.17;;;;;;;20.48;51.36;99872.22;397229;104;1987055;-71
2021/08/13 03:07:18;;;;;;;8.59;4.02;;;;;;;20.34;51.77;99873.77;372070;109;1962977;-73
2021/08/13 03:08:30;;;;;;;9.22;4.05;;;;;;;20.47;51.69;99881.53;357215;101;2082966;-71
2021/08/13 03:09:37;;;;;;;10.49;4.14;;;;;;;20.35;51.76;99879.01;352721;107;1961987;-71
2021/08/13 03:11:04;;;;;;;8.32;4.57;;;;;;;20.35;51.53;99879.01;377847;105;1963162;-72
2021/08/13 03:12:16;;;;;;;6.66;4.02;;;;;;;20.56;51.37;99881.88;387038;104;1987053;-71
2021/08/13 03:13:23;;;;;;;10.57;4.38;;;;;;;20.41;51.50;99879.86;370578;107;1961970;-71
2021/08/13 03:14:36;;;;;;;9.23;5.35;;;;;;;20.57;51.43;99889.85;352493;104;2664018;-72
2021/08/13 03:15:45;;;;;;;9.58;5.11;;;;;;;20.43;51.41;99885.91;375966;107;1965993;-71
2021/08/13 03:16:58;;;;;;;9.26;5.04;;;;;;;20.56;51.39;99893.70;391096;104;1987002;-72
2021/08/13 03:18:04;;;;;;;9.34;4.65;;;;;;;20.36;51.58;99894.36;371129;108;1961961;-71
2021/08/13 03:19:24;;;;;;;10.25;5.30;;;;;;;20.39;52.04;99891.09;387354;104;2941934;-71
2021/08/13 03:20:32;;;;;;;8.82;4.36;;;;;;;20.26;52.21;99893.48;325640;105;2889967;-72
2021/08/13 03:21:46;;;;;;;12.92;4.71;;;;;;;20.33;52.27;99886.67;383643;106;1985925;-73
2021/08/13 03:22:53;;;;;;;9.53;5.29;;;;;;;20.28;51.96;99899.53;355582;109;1961946;-72
2021/08/13 03:24:17;;;;;;;9.34;4.68;;;;;;;20.26;52.12;99894.30;322607;111;1962107;-71
2021/08/13 03:25:30;;;;;;;10.62;5.49;;;;;;;20.35;52.21;99886.39;395111;104;1965058;-71
2021/08/13 03:26:38;;;;;;;8.58;4.13;;;;;;;20.11;52.53;99896.93;352519;107;1965919;-73
2021/08/13 03:27:46;;;;;;;8.38;4.03;;;;;;;20.12;52.40;99898.59;371049;109;1962061;-73
2021/08/13 03:28:52;;;;;;;7.72;4.28;;;;;;;20.06;52.61;99896.89;332286;108;2690994;-72
2021/08/13 03:29:57;;;;;;;8.64;4.26;;;;;;;20.09;52.74;99894.47;354988;108;1961980;-73
2021/08/13 03:31:04;;;;;;;7.51;4.52;;;;;;;20.01;52.92;99900.44;374853;106;1961979;-73
2021/08/13 03:32:20;;;;;;;10.94;4.49;;;;;;;20.18;52.82;99897.53;344377;106;2640105;-72
2021/08/13 03:33:26;;;;;;;10.08;4.59;;;;;;;20.13;52.65;99898.32;370003;109;1961009;-71
2021/08/13 03:34:39;;;;;;;9.91;4.67;;;;;;;20.23;52.82;99894.83;387938;106;2080988;-73
2021/08/13 03:35:44;;;;;;;11.69;4.83;;;;;;;20.11;52.65;99903.27;366141;109;1962123;-71
2021/08/13 03:37:08;;;;;;;9.88;4.28;;;;;;;20.18;52.42;99906.58;362172;109;1961777;-72
2021/08/13 03:38:20;;;;;;;10.22;4.41;;;;;;;20.31;52.40;99901.74;390061;104;1986967;-72
2021/08/13 03:39:27;;;;;;;9.99;4.38;;;;;;;20.16;52.49;99902.45;364676;109;1961989;-71
2021/08/13 03:40:33;;;;;;;9.29;4.65;;;;;;;20.20;52.39;99906.34;366202;109;1966927;-73
2021/08/13 03:41:45;;;;;;;10.97;5.10;;;;;;;20.28;52.56;99897.61;393481;104;2071061;-72
2021/08/13 03:42:53;;;;;;;9.91;4.48;;;;;;;20.17;52.49;99899.45;315794;107;2149041;-71
2021/08/13 03:44:06;;;;;;;10.97;5.03;;;;;;;20.30;52.52;99897.36;398751;101;2072942;-71
2021/08/13 03:45:13;;;;;;;7.95;3.98;;;;;;;20.21;52.37;99908.80;328067;105;2870954;-71
2021/08/13 03:46:38;;;;;;;8.43;4.38;;;;;;;20.25;52.38;99911.86;371661;105;2937092;-72
2021/08/13 03:47:44;;;;;;;8.81;4.23;;;;;;;20.20;52.61;99911.82;379866;107;1961026;-71
2021/08/13 03:48:49;;;;;;;9.97;4.51;;;;;;;20.13;52.65;99909.29;379199;105;1960999;-70
2021/08/13 03:50:02;;;;;;;10.54;4.40;;;;;;;20.38;52.33;99903.16;389638;106;1985831;-71
2021/08/13 03:51:08;;;;;;;9.13;4.59;;;;;;;20.25;52.44;99922.01;342036;109;2416050;-72
2021/08/13 03:52:14;;;;;;;9.13;4.37;;;;;;;20.33;52.16;99914.10;353451;109;1962063;-71
2021/08/13 03:53:26;;;;;;;8.74;4.69;;;;;;;20.49;52.12;99917.77;388837;103;1984989;-71
2021/08/13 03:54:31;;;;;;;10.06;4.89;;;;;;;20.31;52.28;99924.51;369056;108;1960855;-71
2021/08/13 03:55:38;;;;;;;11.13;5.09;;;;;;;20.37;52.05;99919.88;368330;107;1961892;-71
2021/08/13 03:56:50;;;;;;;10.05;5.40;;;;;;;20.60;51.87;99914.02;384731;106;2071898;-72
2021/08/13 03:58:00;;;;;;;11.12;4.99;;;;;;;20.41;52.02;99919.09;360719;111;1962014;-72
2021/08/13 03:59:19;;;;;;;8.72;4.82;;;;;;;20.52;52.08;99921.91;384113;104;2891000;-72
2021/08/13 04:00:25;;;;;;;8.43;4.74;;;;;;;20.39;52.01;99921.27;376847;105;1968981;-73
2021/08/13 04:01:49;;;;;;;10.22;4.89;;;;;;;20.36;52.22;99927.29;343067;105;2305997;-71
2021/08/13 04:02:55;;;;;;;10.57;4.98;;;;;;;20.41;52.21;99931.99;364760;107;1961049;-70
2021/08/13 04:04:08;;;;;;;9.45;5.02;;;;;;;20.42;52.45;99925.40;397967;104;2072042;-71
2021/08/13 04:05:15;;;;;;;10.39;4.98;;;;;;;20.33;52.46;99927.82;382719;105;1962056;-70
2021/08/13 04:06:28;;;;;;;12.17;5.41;;;;;;;20.56;52.06;99934.02;402152;101;2071998;-72
2021/08/13 04:07:34;;;;;;;9.01;4.27;;;;;;;20.47;52.02;99930.11;374441;105;2940951;-72
2021/08/13 04:08:47;;;;;;;8.96;4.44;;;;;;;20.60;52.06;99926.92;395022;104;1961895;-72
2021/08/13 04:09:52;;;;;;;9.68;4.44;;;;;;;20.54;51.88;99930.73;375583;107;1969998;-70
2021/08/13 04:11:05;;;;;;;9.78;5.14;;;;;;;20.66;51.85;99928.59;352216;104;2702044;-71
2021/08/13 04:12:12;;;;;;;9.06;4.70;;;;;;;20.60;51.76;99924.17;374247;107;1962017;-72
2021/08/13 04:13:17;;;;;;;8.25;4.27;;;;;;;20.63;51.63;99921.72;368584;108;1962040;-72
2021/08/13 04:14:31;;;;;;;9.43;4.82;;;;;;;20.71;51.76;99925.87;388798;104;2930061;-72
2021/08/13 04:15:39;;;;;;;8.52;4.41;;;;;;;20.52;51.92;99922.72;372335;108;1962008;-72
2021/08/13 04:16:51;;;;;;;9.82;4.66;;;;;;;20.75;51.56;99924.27;398917;104;1986962;-72
2021/08/13 04:17:57;;;;;;;8.49;4.27;;;;;;;20.68;51.49;99928.34;375594;107;1961991;-72
2021/08/13 04:19:04;;;;;;;7.78;4.52;;;;;;;20.69;51.50;99924.48;368493;107;1961955;-71
2021/08/13 04:20:13;;;;;;;9.27;4.94;;;;;;;20.72;51.35;99919.31;370952;109;1962001;-72
2021/08/13 04:21:26;;;;;;;8.88;4.68;;;;;;;20.92;51.15;99925.98;353436;104;2055964;-73
2021/08/13 04:22:32;;;;;;;9.11;4.79;;;;;;;20.64;51.51;99925.31;374635;107;1961816;-72
2021/08/13 04:23:45;;;;;;;8.87;4.64;;;;;;;20.77;51.52;99924.83;396118;104;1986054;-72
2021/08/13 04:24:53;;;;;;;9.18;4.59;;;;;;;20.62;51.67;99922.00;339817;105;1962013;-71
2021/08/13 04:26:17;;;;;;;11.20;4.99;;;;;;;20.63;51.53;99929.12;328768;107;2037013;-73
2021/08/13 04:27:22;;;;;;;7.77;4.16;;;;;;;20.67;51.39;99933.01;372158;109;1961932;-72
2021/08/13 04:28:28;;;;;;;7.25;4.21;;;;;;;20.61;51.54;99928.56;368736;107;1962046;-73
2021/08/13 04:29:44;;;;;;;7.71;4.06;;;;;;;20.74;51.65;99930.83;395975;104;1986992;-73
2021/08/13 04:30:50;;;;;;;10.52;4.75;;;;;;;20.62;51.71;99938.47;373474;107;1962013;-71
2021/08/13 04:31:56;;;;;;;7.21;3.97;;;;;;;20.61;51.68;99937.65;356239;108;2940016;-73
2021/08/13 04:33:11;;;;;;;7.85;4.72;;;;;;;20.86;51.42;99936.94;388220;106;1965025;-73
2021/08/13 04:34:23;;;;;;;9.98;5.39;;;;;;;20.86;51.46;99936.12;377503;108;1985884;-73
2021/08/13 04:35:28;;;;;;;8.32;4.26;;;;;;;20.72;51.52;99932.19;360389;110;1964962;-73
2021/08/13 04:36:41;;;;;;;11.33;4.72;;;;;;;20.84;51.63;99944.61;377242;106;3066008;-73
2021/08/13 04:37:47;;;;;;;9.24;4.49;;;;;;;20.78;51.43;99940.20;311458;107;2145998;-72
2021/08/13 04:38:56;;;;;;;10.60;4.71;;;;;;;20.89;51.25;99937.51;357360;112;1962071;-71
2021/08/13 04:40:08;;;;;;;9.46;4.50;;;;;;;20.96;51.36;99938.92;397205;104;2073060;-73
2021/08/13 04:41:22;;;;;;;9.89;4.53;;;;;;;20.83;51.40;99944.89;339126;107;2635984;-71
2021/08/13 04:42:28;;;;;;;9.75;4.47;;;;;;;20.96;51.25;99949.91;354661;107;1961884;-71
2021/08/13 04:43:33;;;;;;;9.46;4.51;;;;;;;21.01;50.99;99943.58;361851;107;1962010;-72
2021/08/13 04:44:45;;;;;;;8.19;4.59;;;;;;;21.23;50.76;99937.92;395040;104;1986011;-69
2021/08/13 04:45:53;;;;;;;9.08;4.08;;;;;;;21.13;50.68;99940.63;342844;105;2529976;-73
2021/08/13 04:47:00;;;;;;;9.88;4.94;;;;;;;21.16;50.72;99942.83;377983;107;1962037;-72
2021/08/13 04:48:07;;;;;;;10.17;4.02;;;;;;;21.15;50.76;99950.25;376388;107;1961922;-70
2021/08/13 04:49:19;;;;;;;8.13;4.29;;;;;;;21.30;50.50;99954.95;373807;109;2073089;-71
2021/08/13 04:50:26;;;;;;;10.03;4.73;;;;;;;21.23;50.58;99959.90;359247;112;1961995;-70
2021/08/13 04:51:38;;;;;;;11.47;5.34;;;;;;;21.43;50.40;99939.91;356673;104;2678928;-71
2021/08/13 04:52:49;;;;;;;9.03;4.19;;;;;;;21.32;50.40;99950.02;344894;105;1962014;-70
2021/08/13 04:54:02;;;;;;;10.07;4.86;;;;;;;21.59;50.05;99954.52;396394;104;1986016;-73
2021/08/13 04:55:10;;;;;;;10.89;4.51;;;;;;;21.53;49.99;99950.94;311267;107;2215037;-72
2021/08/13 04:56:36;;;;;;;12.72;5.11;;;;;;;21.62;49.80;99956.72;373740;107;1961988;-72
2021/08/13 04:57:41;;;;;;;9.43;4.73;;;;;;;21.75;49.52;99950.69;378421;105;1962998;-73
2021/08/13 04:58:53;;;;;;;9.57;4.12;;;;;;;21.74;49.37;99955.37;394069;104;1985873;-72
2021/08/13 05:00:10;;;;;;;8.87;3.92;;;;;;;21.84;49.27;99959.25;343248;106;1961981;-72
2021/08/13 05:01:16;;;;;;;7.54;4.08;;;;;;;21.87;48.86;99958.70;372922;108;1962058;-72
2021/08/13 05:02:29;;;;;;;12.20;5.09;;;;;;;22.06;48.94;99957.05;371651;109;2071959;-72
2021/08/13 05:03:36;;;;;;;9.33;4.30;;;;;;;21.99;48.85;99964.77;347867;111;1960924;-72
2021/08/13 05:04:42;;;;;;;8.86;4.36;;;;;;;22.03;48.76;99960.35;357977;113;1960774;-73
2021/08/13 05:05:55;;;;;;;9.09;4.32;;;;;;;22.19;48.68;99961.20;378958;106;2861929;-72
2021/08/13 05:07:02;;;;;;;7.90;4.22;;;;;;;22.01;48.67;99948.79;370901;108;1960807;-72
2021/08/13 05:08:15;;;;;;;8.94;4.28;;;;;;;22.10;48.80;99952.66;346679;104;2731794;-73
2021/08/13 05:09:27;;;;;;;8.62;4.01;;;;;;;22.17;48.69;99958.72;386877;105;2070815;-72
2021/08/13 05:10:33;;;;;;;8.59;5.15;;;;;;;22.20;48.58;99959.28;365141;109;1960841;-73
2021/08/13 05:11:46;;;;;;;7.94;4.22;;;;;;;22.43;48.21;99955.95;352631;102;2782858;-73
2021/08/13 05:12:55;;;;;;;8.86;4.36;;;;;;;22.30;48.14;99964.78;377234;107;1960837;-72
2021/08/13 05:14:19;;;;;;;13.20;4.88;;;;;;;22.37;48.13;99959.83;376384;107;1961985;-73
2021/08/13 05:15:25;;;;;;;9.97;4.69;;;;;;;22.26;48.29;99967.27;370204;107;1961023;-73
2021/08/13 05:16:31;;;;;;;8.55;4.52;;;;;;;22.36;48.26;99966.42;321463;103;2043017;-72
2021/08/13 05:17:37;;;;;;;9.29;4.75;;;;;;;22.43;48.15;99966.15;336136;109;1961875;-71
2021/08/13 05:18:45;;;;;;;9.06;4.38;;;;;;;22.42;48.14;99968.08;359155;109;1962062;-74
2021/08/13 05:19:58;;;;;;;10.63;4.41;;;;;;;22.59;48.06;99970.52;397683;103;1986046;-73
2021/08/13 05:21:06;;;;;;;11.63;5.41;;;;;;;22.50;47.98;99967.52;377242;107;1962098;-74
2021/08/13 05:22:17;;;;;;;10.36;4.60;;;;;;;22.68;47.99;99965.27;395707;104;1987756;-73
2021/08/13 05:23:34;;;;;;;7.59;3.94;;;;;;;22.65;47.89;99965.83;379813;106;1960924;-73
2021/08/13 05:24:40;;;;;;;7.81;4.36;;;;;;;22.65;47.86;99974.94;366518;110;1961920;-73
2021/08/13 05:25:52;;;;;;;8.87;4.17;;;;;;;22.80;47.84;99965.80;362418;104;2071920;-72
2021/08/13 05:26:59;;;;;;;6.89;4.11;;;;;;;22.68;47.68;99970.77;375766;105;1962022;-73
2021/08/13 05:28:11;;;;;;;9.03;4.60;;;;;;;22.79;47.75;99975.17;390283;104;1987985;-72
2021/08/13 05:29:17;;;;;;;8.29;4.47;;;;;;;22.71;47.74;99976.56;370998;107;1962013;-72
2021/08/13 05:30:24;;;;;;;11.38;3.89;;;;;;;22.68;47.80;99973.53;361178;109;1963022;-73